sensor_id;sensor_type;location;lat;lon;timestamp;P1;durP1;ratioP1;P2;durP2;ratioP2
58338;SDS011;48278;52.704;6.536;2022-11-04T00:01:33;1.15;;;0.30;;
58338;SDS011;48278;52.704;6.536;2022-11-04T00:04:03;3.83;;;0.40;;
58338;SDS011;48278;52.704;6.536;2022-11-04T00:06:29;1.45;;;0.30;;
58338;SDS011;48278;52.704;6.536;2022-11-04T00:08:56;3.03;;;0.30;;
58338;SDS011;48278;52.704;6.536;2022-11-04T00:11:22;3.10;;;0.40;;
58338;SDS011;48278;52.704;6.536;2022-11-04T00:14:08;1.10;;;0.20;;
58338;SDS011;48278;52.704;6.536;2022-11-04T00:16:34;0.50;;;0.10;;
58338;SDS011;48278;52.704;6.536;2022-11-04T00:19:18;2.45;;;0.20;;
58338;SDS011;48278;52.704;6.536;2022-11-04T00:21:44;0.32;;;0.10;;
58338;SDS011;48278;52.704;6.536;2022-11-04T00:24:28;1.75;;;0.30;;
58338;SDS011;48278;52.704;6.536;2022-11-04T00:27:07;2.92;;;0.20;;
58338;SDS011;48278;52.704;6.536;2022-11-04T00:29:59;1.00;;;0.10;;
58338;SDS011;48278;52.704;6.536;2022-11-04T00:32:25;1.42;;;0.20;;
58338;SDS011;48278;52.704;6.536;2022-11-04T00:35:10;2.83;;;0.10;;
58338;SDS011;48278;52.704;6.536;2022-11-04T00:37:40;3.30;;;0.20;;
58338;SDS011;48278;52.704;6.536;2022-11-04T00:40:08;1.60;;;0.20;;
58338;SDS011;48278;52.704;6.536;2022-11-04T00:42:35;1.67;;;0.20;;
58338;SDS011;48278;52.704;6.536;2022-11-04T00:45:01;1.95;;;0.20;;
58338;SDS011;48278;52.704;6.536;2022-11-04T00:47:28;3.10;;;0.20;;
58338;SDS011;48278;52.704;6.536;2022-11-04T00:49:54;2.28;;;0.30;;
58338;SDS011;48278;52.704;6.536;2022-11-04T00:52:20;1.75;;;0.20;;
58338;SDS011;48278;52.704;6.536;2022-11-04T00:54:46;2.35;;;0.20;;
58338;SDS011;48278;52.704;6.536;2022-11-04T00:57:12;1.67;;;0.20;;
58338;SDS011;48278;52.704;6.536;2022-11-04T00:59:38;1.60;;;0.20;;
58338;SDS011;48278;52.704;6.536;2022-11-04T01:02:08;1.35;;;0.40;;
58338;SDS011;48278;52.704;6.536;2022-11-04T01:04:34;0.75;;;0.17;;
58338;SDS011;48278;52.704;6.536;2022-11-04T01:07:00;0.82;;;0.20;;
58338;SDS011;48278;52.704;6.536;2022-11-04T01:09:26;2.97;;;0.20;;
58338;SDS011;48278;52.704;6.536;2022-11-04T01:11:52;1.40;;;0.20;;
58338;SDS011;48278;52.704;6.536;2022-11-04T01:14:18;2.95;;;0.20;;
58338;SDS011;48278;52.704;6.536;2022-11-04T01:16:44;2.17;;;0.20;;
58338;SDS011;48278;52.704;6.536;2022-11-04T01:19:10;1.13;;;0.17;;
58338;SDS011;48278;52.704;6.536;2022-11-04T01:21:36;1.23;;;0.20;;
58338;SDS011;48278;52.704;6.536;2022-11-04T01:24:02;1.38;;;0.30;;
58338;SDS011;48278;52.704;6.536;2022-11-04T01:26:28;2.47;;;0.20;;
58338;SDS011;48278;52.704;6.536;2022-11-04T01:28:55;2.35;;;0.20;;
58338;SDS011;48278;52.704;6.536;2022-11-04T01:31:23;2.90;;;0.30;;
58338;SDS011;48278;52.704;6.536;2022-11-04T01:33:51;0.90;;;0.20;;
58338;SDS011;48278;52.704;6.536;2022-11-04T01:36:18;3.75;;;0.50;;
58338;SDS011;48278;52.704;6.536;2022-11-04T01:38:44;2.42;;;0.30;;
58338;SDS011;48278;52.704;6.536;2022-11-04T01:41:20;2.90;;;0.30;;
58338;SDS011;48278;52.704;6.536;2022-11-04T01:43:53;2.83;;;0.40;;
58338;SDS011;48278;52.704;6.536;2022-11-04T01:48:50;2.13;;;0.45;;
58338;SDS011;48278;52.704;6.536;2022-11-04T01:51:17;2.83;;;0.50;;
58338;SDS011;48278;52.704;6.536;2022-11-04T01:53:44;5.30;;;0.60;;
58338;SDS011;48278;52.704;6.536;2022-11-04T01:56:11;4.80;;;0.73;;
58338;SDS011;48278;52.704;6.536;2022-11-04T01:58:39;3.90;;;1.15;;
58338;SDS011;48278;52.704;6.536;2022-11-04T02:01:11;4.68;;;1.30;;
58338;SDS011;48278;52.704;6.536;2022-11-04T02:03:39;8.07;;;1.33;;
58338;SDS011;48278;52.704;6.536;2022-11-04T02:06:14;5.63;;;1.70;;
58338;SDS011;48278;52.704;6.536;2022-11-04T02:11:07;8.03;;;1.40;;
58338;SDS011;48278;52.704;6.536;2022-11-04T02:13:33;5.00;;;1.42;;
58338;SDS011;48278;52.704;6.536;2022-11-04T02:19:01;5.55;;;1.88;;
58338;SDS011;48278;52.704;6.536;2022-11-04T02:24:41;4.68;;;2.13;;
58338;SDS011;48278;52.704;6.536;2022-11-04T02:30:08;5.85;;;2.22;;
58338;SDS011;48278;52.704;6.536;2022-11-04T02:40:38;7.70;;;2.63;;
58338;SDS011;48278;52.704;6.536;2022-11-04T02:45:48;10.13;;;2.90;;
58338;SDS011;48278;52.704;6.536;2022-11-04T02:53:32;10.20;;;3.45;;
58338;SDS011;48278;52.704;6.536;2022-11-04T02:56:07;9.73;;;3.50;;
58338;SDS011;48278;52.704;6.536;2022-11-04T02:58:36;5.93;;;1.95;;
58338;SDS011;48278;52.704;6.536;2022-11-04T03:01:07;5.78;;;1.55;;
58338;SDS011;48278;52.704;6.536;2022-11-04T03:03:38;4.70;;;1.33;;
58338;SDS011;48278;52.704;6.536;2022-11-04T03:06:09;4.78;;;1.10;;
58338;SDS011;48278;52.704;6.536;2022-11-04T03:08:39;4.68;;;1.10;;
58338;SDS011;48278;52.704;6.536;2022-11-04T03:11:14;5.85;;;1.20;;
58338;SDS011;48278;52.704;6.536;2022-11-04T03:13:49;3.70;;;0.90;;
58338;SDS011;48278;52.704;6.536;2022-11-04T03:16:32;4.60;;;0.80;;
58338;SDS011;48278;52.704;6.536;2022-11-04T03:19:46;4.55;;;0.73;;
58338;SDS011;48278;52.704;6.536;2022-11-04T03:22:01;5.00;;;0.75;;
58338;SDS011;48278;52.704;6.536;2022-11-04T03:24:35;4.50;;;0.70;;
58338;SDS011;48278;52.704;6.536;2022-11-04T03:27:07;1.95;;;0.50;;
58338;SDS011;48278;52.704;6.536;2022-11-04T03:35:18;1.23;;;0.10;;
58338;SDS011;48278;52.704;6.536;2022-11-04T03:37:44;1.55;;;0.20;;
58338;SDS011;48278;52.704;6.536;2022-11-04T03:40:12;0.73;;;0.10;;
58338;SDS011;48278;52.704;6.536;2022-11-04T03:42:41;0.63;;;0.10;;
58338;SDS011;48278;52.704;6.536;2022-11-04T03:45:10;1.73;;;0.20;;
58338;SDS011;48278;52.704;6.536;2022-11-04T03:47:36;0.28;;;0.10;;
58338;SDS011;48278;52.704;6.536;2022-11-04T03:50:10;1.52;;;0.10;;
58338;SDS011;48278;52.704;6.536;2022-11-04T03:52:57;4.00;;;0.17;;
58338;SDS011;48278;52.704;6.536;2022-11-04T03:55:29;3.10;;;0.10;;
58338;SDS011;48278;52.704;6.536;2022-11-04T04:01:02;1.17;;;0.10;;
58338;SDS011;48278;52.704;6.536;2022-11-04T04:06:56;3.28;;;0.20;;
58338;SDS011;48278;52.704;6.536;2022-11-04T04:09:53;3.35;;;0.20;;
58338;SDS011;48278;52.704;6.536;2022-11-04T04:12:25;1.52;;;0.10;;
58338;SDS011;48278;52.704;6.536;2022-11-04T04:15:17;0.70;;;0.20;;
58338;SDS011;48278;52.704;6.536;2022-11-04T04:17:54;2.50;;;0.20;;
58338;SDS011;48278;52.704;6.536;2022-11-04T04:20:26;2.15;;;0.28;;
58338;SDS011;48278;52.704;6.536;2022-11-04T04:23:00;2.08;;;0.30;;
58338;SDS011;48278;52.704;6.536;2022-11-04T04:25:50;3.05;;;0.20;;
58338;SDS011;48278;52.704;6.536;2022-11-04T04:28:37;5.05;;;0.35;;
58338;SDS011;48278;52.704;6.536;2022-11-04T04:31:04;3.08;;;0.40;;
58338;SDS011;48278;52.704;6.536;2022-11-04T04:33:30;2.90;;;0.30;;
58338;SDS011;48278;52.704;6.536;2022-11-04T04:35:56;2.80;;;0.40;;
58338;SDS011;48278;52.704;6.536;2022-11-04T04:38:27;8.02;;;0.40;;
58338;SDS011;48278;52.704;6.536;2022-11-04T04:41:20;1.65;;;0.30;;
58338;SDS011;48278;52.704;6.536;2022-11-04T04:47:04;2.08;;;0.28;;
58338;SDS011;48278;52.704;6.536;2022-11-04T04:49:31;2.30;;;0.40;;
58338;SDS011;48278;52.704;6.536;2022-11-04T04:52:03;4.15;;;0.40;;
58338;SDS011;48278;52.704;6.536;2022-11-04T04:54:31;4.07;;;1.15;;
58338;SDS011;48278;52.704;6.536;2022-11-04T04:56:57;3.92;;;0.43;;
58338;SDS011;48278;52.704;6.536;2022-11-04T04:59:22;3.72;;;1.30;;
58338;SDS011;48278;52.704;6.536;2022-11-04T05:01:48;4.78;;;0.30;;
58338;SDS011;48278;52.704;6.536;2022-11-04T05:04:14;2.00;;;0.25;;
58338;SDS011;48278;52.704;6.536;2022-11-04T05:06:39;0.60;;;0.10;;
58338;SDS011;48278;52.704;6.536;2022-11-04T05:09:05;0.93;;;0.10;;
58338;SDS011;48278;52.704;6.536;2022-11-04T05:11:31;2.13;;;0.10;;
58338;SDS011;48278;52.704;6.536;2022-11-04T05:13:57;0.55;;;0.10;;
58338;SDS011;48278;52.704;6.536;2022-11-04T05:16:22;1.58;;;0.10;;
58338;SDS011;48278;52.704;6.536;2022-11-04T05:18:50;1.00;;;0.10;;
58338;SDS011;48278;52.704;6.536;2022-11-04T05:21:16;1.27;;;0.20;;
58338;SDS011;48278;52.704;6.536;2022-11-04T05:23:42;2.95;;;0.30;;
58338;SDS011;48278;52.704;6.536;2022-11-04T05:26:08;4.10;;;0.35;;
58338;SDS011;48278;52.704;6.536;2022-11-04T05:28:33;3.22;;;0.50;;
58338;SDS011;48278;52.704;6.536;2022-11-04T05:31:03;4.57;;;0.80;;
58338;SDS011;48278;52.704;6.536;2022-11-04T05:33:30;3.75;;;0.90;;
58338;SDS011;48278;52.704;6.536;2022-11-04T05:36:04;3.28;;;0.50;;
58338;SDS011;48278;52.704;6.536;2022-11-04T05:38:31;3.13;;;0.50;;
58338;SDS011;48278;52.704;6.536;2022-11-04T05:40:57;2.42;;;0.40;;
58338;SDS011;48278;52.704;6.536;2022-11-04T05:43:22;4.07;;;0.60;;
58338;SDS011;48278;52.704;6.536;2022-11-04T05:45:48;3.75;;;0.50;;
58338;SDS011;48278;52.704;6.536;2022-11-04T05:48:14;2.13;;;0.70;;
58338;SDS011;48278;52.704;6.536;2022-11-04T05:50:40;7.00;;;0.70;;
58338;SDS011;48278;52.704;6.536;2022-11-04T05:53:06;2.97;;;0.60;;
58338;SDS011;48278;52.704;6.536;2022-11-04T05:55:32;3.95;;;0.60;;
58338;SDS011;48278;52.704;6.536;2022-11-04T05:57:58;2.47;;;0.52;;
58338;SDS011;48278;52.704;6.536;2022-11-04T06:00:24;1.98;;;0.40;;
58338;SDS011;48278;52.704;6.536;2022-11-04T06:02:51;1.90;;;0.40;;
58338;SDS011;48278;52.704;6.536;2022-11-04T06:05:17;2.35;;;0.40;;
58338;SDS011;48278;52.704;6.536;2022-11-04T06:07:43;3.88;;;0.60;;
58338;SDS011;48278;52.704;6.536;2022-11-04T06:10:09;3.67;;;0.60;;
58338;SDS011;48278;52.704;6.536;2022-11-04T06:12:34;2.58;;;0.50;;
58338;SDS011;48278;52.704;6.536;2022-11-04T06:15:00;2.65;;;0.50;;
58338;SDS011;48278;52.704;6.536;2022-11-04T06:17:26;4.78;;;0.63;;
58338;SDS011;48278;52.704;6.536;2022-11-04T06:19:52;4.35;;;0.50;;
58338;SDS011;48278;52.704;6.536;2022-11-04T06:22:18;2.85;;;0.50;;
58338;SDS011;48278;52.704;6.536;2022-11-04T06:24:44;3.50;;;0.73;;
58338;SDS011;48278;52.704;6.536;2022-11-04T06:27:10;4.65;;;0.45;;
58338;SDS011;48278;52.704;6.536;2022-11-04T06:29:36;2.92;;;0.30;;
58338;SDS011;48278;52.704;6.536;2022-11-04T06:32:06;4.50;;;0.30;;
58338;SDS011;48278;52.704;6.536;2022-11-04T06:36:58;2.00;;;0.40;;
58338;SDS011;48278;52.704;6.536;2022-11-04T06:39:24;3.38;;;0.40;;
58338;SDS011;48278;52.704;6.536;2022-11-04T06:41:50;3.42;;;0.43;;
58338;SDS011;48278;52.704;6.536;2022-11-04T06:44:15;1.98;;;0.30;;
58338;SDS011;48278;52.704;6.536;2022-11-04T06:46:41;1.38;;;0.20;;
58338;SDS011;48278;52.704;6.536;2022-11-04T06:49:15;3.50;;;0.38;;
58338;SDS011;48278;52.704;6.536;2022-11-04T06:51:42;2.60;;;0.32;;
58338;SDS011;48278;52.704;6.536;2022-11-04T06:54:08;3.80;;;0.30;;
58338;SDS011;48278;52.704;6.536;2022-11-04T06:56:35;1.47;;;0.30;;
58338;SDS011;48278;52.704;6.536;2022-11-04T06:59:01;3.20;;;0.35;;
58338;SDS011;48278;52.704;6.536;2022-11-04T07:01:28;1.77;;;0.40;;
58338;SDS011;48278;52.704;6.536;2022-11-04T07:03:57;3.88;;;0.63;;
58338;SDS011;48278;52.704;6.536;2022-11-04T07:06:24;4.10;;;0.65;;
58338;SDS011;48278;52.704;6.536;2022-11-04T07:08:51;4.05;;;0.50;;
58338;SDS011;48278;52.704;6.536;2022-11-04T07:11:18;3.15;;;0.70;;
58338;SDS011;48278;52.704;6.536;2022-11-04T07:13:54;3.63;;;0.70;;
58338;SDS011;48278;52.704;6.536;2022-11-04T07:16:20;4.22;;;0.90;;
58338;SDS011;48278;52.704;6.536;2022-11-04T07:18:45;4.50;;;0.90;;
58338;SDS011;48278;52.704;6.536;2022-11-04T07:21:13;5.30;;;1.27;;
58338;SDS011;48278;52.704;6.536;2022-11-04T07:23:39;3.83;;;1.17;;
58338;SDS011;48278;52.704;6.536;2022-11-04T07:26:06;4.50;;;1.08;;
58338;SDS011;48278;52.704;6.536;2022-11-04T07:28:34;6.05;;;1.42;;
58338;SDS011;48278;52.704;6.536;2022-11-04T07:31:00;5.88;;;1.65;;
58338;SDS011;48278;52.704;6.536;2022-11-04T07:33:28;5.45;;;1.75;;
58338;SDS011;48278;52.704;6.536;2022-11-04T07:35:54;8.40;;;2.10;;
58338;SDS011;48278;52.704;6.536;2022-11-04T07:38:20;7.40;;;2.43;;
58338;SDS011;48278;52.704;6.536;2022-11-04T07:40:46;7.80;;;2.38;;
58338;SDS011;48278;52.704;6.536;2022-11-04T07:43:13;9.13;;;2.78;;
58338;SDS011;48278;52.704;6.536;2022-11-04T07:45:39;8.85;;;3.30;;
58338;SDS011;48278;52.704;6.536;2022-11-04T07:48:05;8.80;;;2.88;;
58338;SDS011;48278;52.704;6.536;2022-11-04T07:50:31;9.20;;;3.42;;
58338;SDS011;48278;52.704;6.536;2022-11-04T07:52:58;15.93;;;3.85;;
58338;SDS011;48278;52.704;6.536;2022-11-04T07:57:50;16.47;;;4.70;;
58338;SDS011;48278;52.704;6.536;2022-11-04T08:00:16;10.57;;;4.82;;
58338;SDS011;48278;52.704;6.536;2022-11-04T08:02:42;13.60;;;5.55;;
58338;SDS011;48278;52.704;6.536;2022-11-04T08:05:11;13.15;;;4.95;;
58338;SDS011;48278;52.704;6.536;2022-11-04T08:07:37;15.05;;;5.65;;
58338;SDS011;48278;52.704;6.536;2022-11-04T08:10:04;13.07;;;5.53;;
58338;SDS011;48278;52.704;6.536;2022-11-04T08:12:30;14.52;;;5.88;;
58338;SDS011;48278;52.704;6.536;2022-11-04T08:14:57;18.42;;;6.15;;
58338;SDS011;48278;52.704;6.536;2022-11-04T08:17:23;11.40;;;4.82;;
58338;SDS011;48278;52.704;6.536;2022-11-04T08:19:49;28.45;;;6.80;;
58338;SDS011;48278;52.704;6.536;2022-11-04T08:22:15;15.48;;;5.90;;
58338;SDS011;48278;52.704;6.536;2022-11-04T08:24:41;15.25;;;6.38;;
58338;SDS011;48278;52.704;6.536;2022-11-04T08:27:07;17.33;;;6.93;;
58338;SDS011;48278;52.704;6.536;2022-11-04T08:29:34;19.75;;;6.88;;
58338;SDS011;48278;52.704;6.536;2022-11-04T08:32:00;19.80;;;7.80;;
58338;SDS011;48278;52.704;6.536;2022-11-04T08:34:26;20.08;;;8.40;;
58338;SDS011;48278;52.704;6.536;2022-11-04T08:36:52;20.60;;;8.43;;
58338;SDS011;48278;52.704;6.536;2022-11-04T08:39:17;21.27;;;9.05;;
58338;SDS011;48278;52.704;6.536;2022-11-04T08:41:44;24.02;;;10.40;;
58338;SDS011;48278;52.704;6.536;2022-11-04T08:44:11;22.95;;;10.45;;
58338;SDS011;48278;52.704;6.536;2022-11-04T08:46:38;21.30;;;9.65;;
58338;SDS011;48278;52.704;6.536;2022-11-04T08:49:06;26.90;;;11.25;;
58338;SDS011;48278;52.704;6.536;2022-11-04T08:51:32;25.58;;;11.63;;
58338;SDS011;48278;52.704;6.536;2022-11-04T08:54:00;25.30;;;11.10;;
58338;SDS011;48278;52.704;6.536;2022-11-04T08:56:29;25.23;;;10.65;;
58338;SDS011;48278;52.704;6.536;2022-11-04T08:58:57;29.08;;;11.65;;
58338;SDS011;48278;52.704;6.536;2022-11-04T09:01:24;29.23;;;11.73;;
58338;SDS011;48278;52.704;6.536;2022-11-04T09:03:51;25.65;;;11.25;;
58338;SDS011;48278;52.704;6.536;2022-11-04T09:06:18;27.88;;;12.10;;
58338;SDS011;48278;52.704;6.536;2022-11-04T09:08:49;30.23;;;12.18;;
58338;SDS011;48278;52.704;6.536;2022-11-04T09:11:16;28.40;;;11.43;;
58338;SDS011;48278;52.704;6.536;2022-11-04T09:13:42;29.50;;;12.50;;
58338;SDS011;48278;52.704;6.536;2022-11-04T09:16:09;30.05;;;12.18;;
58338;SDS011;48278;52.704;6.536;2022-11-04T09:18:37;30.52;;;13.23;;
58338;SDS011;48278;52.704;6.536;2022-11-04T09:21:03;29.65;;;13.07;;
58338;SDS011;48278;52.704;6.536;2022-11-04T09:23:30;33.33;;;14.02;;
58338;SDS011;48278;52.704;6.536;2022-11-04T09:25:56;32.90;;;13.93;;
58338;SDS011;48278;52.704;6.536;2022-11-04T09:28:27;38.72;;;15.02;;
58338;SDS011;48278;52.704;6.536;2022-11-04T09:30:52;32.72;;;13.43;;
58338;SDS011;48278;52.704;6.536;2022-11-04T09:33:18;35.03;;;14.80;;
58338;SDS011;48278;52.704;6.536;2022-11-04T09:35:52;30.70;;;14.43;;
58338;SDS011;48278;52.704;6.536;2022-11-04T09:38:20;35.92;;;16.70;;
58338;SDS011;48278;52.704;6.536;2022-11-04T09:40:45;35.45;;;15.60;;
58338;SDS011;48278;52.704;6.536;2022-11-04T09:43:33;33.22;;;15.52;;
58338;SDS011;48278;52.704;6.536;2022-11-04T09:46:10;31.98;;;14.82;;
58338;SDS011;48278;52.704;6.536;2022-11-04T09:48:47;35.58;;;15.02;;
58338;SDS011;48278;52.704;6.536;2022-11-04T09:51:16;38.08;;;15.82;;
58338;SDS011;48278;52.704;6.536;2022-11-04T09:53:48;34.58;;;15.98;;
58338;SDS011;48278;52.704;6.536;2022-11-04T09:56:20;34.78;;;15.80;;
58338;SDS011;48278;52.704;6.536;2022-11-04T09:58:52;36.65;;;15.90;;
58338;SDS011;48278;52.704;6.536;2022-11-04T10:01:34;40.47;;;18.17;;
58338;SDS011;48278;52.704;6.536;2022-11-04T10:06:59;35.85;;;15.23;;
58338;SDS011;48278;52.704;6.536;2022-11-04T10:09:53;37.72;;;15.10;;
58338;SDS011;48278;52.704;6.536;2022-11-04T10:15:42;38.13;;;16.60;;
58338;SDS011;48278;52.704;6.536;2022-11-04T10:26:44;31.70;;;14.60;;
58338;SDS011;48278;52.704;6.536;2022-11-04T10:29:34;35.28;;;15.05;;
58338;SDS011;48278;52.704;6.536;2022-11-04T10:32:08;32.97;;;16.23;;
58338;SDS011;48278;52.704;6.536;2022-11-04T10:37:12;34.58;;;16.42;;
58338;SDS011;48278;52.704;6.536;2022-11-04T10:39:41;32.95;;;16.38;;
58338;SDS011;48278;52.704;6.536;2022-11-04T10:42:10;30.70;;;16.00;;
58338;SDS011;48278;52.704;6.536;2022-11-04T10:44:42;37.72;;;15.45;;
58338;SDS011;48278;52.704;6.536;2022-11-04T10:52:43;30.08;;;13.98;;
58338;SDS011;48278;52.704;6.536;2022-11-04T10:55:13;31.80;;;15.00;;
58338;SDS011;48278;52.704;6.536;2022-11-04T10:57:59;29.02;;;15.00;;
58338;SDS011;48278;52.704;6.536;2022-11-04T11:00:40;33.10;;;15.75;;
58338;SDS011;48278;52.704;6.536;2022-11-04T11:08:58;30.65;;;15.75;;
58338;SDS011;48278;52.704;6.536;2022-11-04T11:14:33;32.33;;;15.65;;
58338;SDS011;48278;52.704;6.536;2022-11-04T11:19:48;30.50;;;14.05;;
58338;SDS011;48278;52.704;6.536;2022-11-04T11:22:28;35.60;;;14.75;;
58338;SDS011;48278;52.704;6.536;2022-11-04T11:25:11;26.25;;;13.65;;
58338;SDS011;48278;52.704;6.536;2022-11-04T11:28:19;24.60;;;12.77;;
58338;SDS011;48278;52.704;6.536;2022-11-04T11:33:19;33.15;;;14.75;;
58338;SDS011;48278;52.704;6.536;2022-11-04T11:35:59;30.90;;;15.18;;
58338;SDS011;48278;52.704;6.536;2022-11-04T11:39:04;28.40;;;15.07;;
58338;SDS011;48278;52.704;6.536;2022-11-04T11:44:28;29.13;;;14.05;;
58338;SDS011;48278;52.704;6.536;2022-11-04T11:47:18;26.38;;;13.15;;
58338;SDS011;48278;52.704;6.536;2022-11-04T11:50:03;26.30;;;13.27;;
58338;SDS011;48278;52.704;6.536;2022-11-04T11:52:41;31.33;;;12.73;;
58338;SDS011;48278;52.704;6.536;2022-11-04T11:55:17;23.33;;;11.87;;
58338;SDS011;48278;52.704;6.536;2022-11-04T12:00:24;30.15;;;13.93;;
58338;SDS011;48278;52.704;6.536;2022-11-04T12:05:34;23.65;;;12.75;;
58338;SDS011;48278;52.704;6.536;2022-11-04T12:11:29;28.35;;;11.68;;
58338;SDS011;48278;52.704;6.536;2022-11-04T12:14:04;20.70;;;11.27;;
58338;SDS011;48278;52.704;6.536;2022-11-04T12:28:15;19.73;;;9.50;;
58338;SDS011;48278;52.704;6.536;2022-11-04T12:30:59;18.10;;;9.75;;
58338;SDS011;48278;52.704;6.536;2022-11-04T12:33:46;21.50;;;9.07;;
58338;SDS011;48278;52.704;6.536;2022-11-04T12:53:28;13.82;;;6.28;;
58338;SDS011;48278;52.704;6.536;2022-11-04T12:56:07;14.52;;;6.25;;
58338;SDS011;48278;52.704;6.536;2022-11-04T13:01:33;16.60;;;8.52;;
58338;SDS011;48278;52.704;6.536;2022-11-04T13:04:16;16.35;;;7.93;;
58338;SDS011;48278;52.704;6.536;2022-11-04T13:06:53;7.43;;;1.85;;
58338;SDS011;48278;52.704;6.536;2022-11-04T13:09:42;7.85;;;0.60;;
58338;SDS011;48278;52.704;6.536;2022-11-04T13:12:15;3.78;;;0.40;;
58338;SDS011;48278;52.704;6.536;2022-11-04T13:14:56;2.97;;;0.32;;
58338;SDS011;48278;52.704;6.536;2022-11-04T13:17:30;5.05;;;0.50;;
58338;SDS011;48278;52.704;6.536;2022-11-04T13:20:02;5.40;;;0.50;;
58338;SDS011;48278;52.704;6.536;2022-11-04T13:22:38;4.50;;;0.50;;
58338;SDS011;48278;52.704;6.536;2022-11-04T13:25:23;7.13;;;0.57;;
58338;SDS011;48278;52.704;6.536;2022-11-04T13:27:54;4.60;;;0.40;;
58338;SDS011;48278;52.704;6.536;2022-11-04T13:33:18;4.47;;;0.80;;
58338;SDS011;48278;52.704;6.536;2022-11-04T13:38:56;5.70;;;0.57;;
58338;SDS011;48278;52.704;6.536;2022-11-04T13:41:29;4.78;;;0.60;;
58338;SDS011;48278;52.704;6.536;2022-11-04T13:44:24;6.80;;;0.63;;
58338;SDS011;48278;52.704;6.536;2022-11-04T13:46:58;10.13;;;0.90;;
58338;SDS011;48278;52.704;6.536;2022-11-04T13:49:28;4.60;;;0.93;;
58338;SDS011;48278;52.704;6.536;2022-11-04T13:57:07;5.72;;;1.20;;
58338;SDS011;48278;52.704;6.536;2022-11-04T13:59:39;6.60;;;0.90;;
58338;SDS011;48278;52.704;6.536;2022-11-04T14:02:34;10.77;;;1.02;;
58338;SDS011;48278;52.704;6.536;2022-11-04T14:18:42;7.78;;;0.90;;
58338;SDS011;48278;52.704;6.536;2022-11-04T14:21:13;6.47;;;0.93;;
58338;SDS011;48278;52.704;6.536;2022-11-04T14:23:39;6.10;;;0.82;;
58338;SDS011;48278;52.704;6.536;2022-11-04T14:26:08;5.57;;;0.70;;
58338;SDS011;48278;52.704;6.536;2022-11-04T14:28:36;6.25;;;0.95;;
58338;SDS011;48278;52.704;6.536;2022-11-04T14:41:30;7.25;;;0.80;;
58338;SDS011;48278;52.704;6.536;2022-11-04T14:44:22;7.85;;;1.00;;
58338;SDS011;48278;52.704;6.536;2022-11-04T14:46:57;5.38;;;0.85;;
58338;SDS011;48278;52.704;6.536;2022-11-04T14:49:41;5.28;;;1.10;;
58338;SDS011;48278;52.704;6.536;2022-11-04T14:54:45;6.97;;;1.67;;
58338;SDS011;48278;52.704;6.536;2022-11-04T14:57:12;6.30;;;1.20;;
58338;SDS011;48278;52.704;6.536;2022-11-04T14:59:39;6.68;;;1.38;;
58338;SDS011;48278;52.704;6.536;2022-11-04T15:02:10;7.63;;;1.27;;
58338;SDS011;48278;52.704;6.536;2022-11-04T15:04:51;9.25;;;1.30;;
58338;SDS011;48278;52.704;6.536;2022-11-04T15:09:55;7.90;;;1.63;;
58338;SDS011;48278;52.704;6.536;2022-11-04T15:12:21;5.00;;;1.17;;
58338;SDS011;48278;52.704;6.536;2022-11-04T15:17:49;5.25;;;1.50;;
58338;SDS011;48278;52.704;6.536;2022-11-04T15:20:22;7.65;;;1.45;;
58338;SDS011;48278;52.704;6.536;2022-11-04T15:22:50;5.18;;;1.38;;
58338;SDS011;48278;52.704;6.536;2022-11-04T15:25:17;4.28;;;1.40;;
58338;SDS011;48278;52.704;6.536;2022-11-04T15:27:43;6.77;;;1.10;;
58338;SDS011;48278;52.704;6.536;2022-11-04T15:30:20;6.68;;;1.20;;
58338;SDS011;48278;52.704;6.536;2022-11-04T15:32:55;9.00;;;1.48;;
58338;SDS011;48278;52.704;6.536;2022-11-04T15:35:22;10.35;;;1.45;;
58338;SDS011;48278;52.704;6.536;2022-11-04T15:37:49;5.55;;;1.08;;
58338;SDS011;48278;52.704;6.536;2022-11-04T15:40:16;6.65;;;1.13;;
58338;SDS011;48278;52.704;6.536;2022-11-04T15:42:42;9.13;;;1.45;;
58338;SDS011;48278;52.704;6.536;2022-11-04T15:53:56;7.22;;;1.13;;
58338;SDS011;48278;52.704;6.536;2022-11-04T15:56:43;8.02;;;1.42;;
58338;SDS011;48278;52.704;6.536;2022-11-04T15:59:17;8.20;;;1.30;;
58338;SDS011;48278;52.704;6.536;2022-11-04T16:01:55;22.08;;;1.80;;
58338;SDS011;48278;52.704;6.536;2022-11-04T16:04:23;4.53;;;1.20;;
58338;SDS011;48278;52.704;6.536;2022-11-04T16:09:46;14.45;;;1.40;;
58338;SDS011;48278;52.704;6.536;2022-11-04T16:15:00;13.40;;;2.05;;
58338;SDS011;48278;52.704;6.536;2022-11-04T16:17:26;8.90;;;1.65;;
58338;SDS011;48278;52.704;6.536;2022-11-04T16:20:00;11.98;;;2.60;;
58338;SDS011;48278;52.704;6.536;2022-11-04T16:24:58;8.88;;;2.92;;
58338;SDS011;48278;52.704;6.536;2022-11-04T16:27:26;10.63;;;3.30;;
58338;SDS011;48278;52.704;6.536;2022-11-04T16:30:00;10.93;;;3.78;;
58338;SDS011;48278;52.704;6.536;2022-11-04T16:32:47;9.73;;;3.70;;
58338;SDS011;48278;52.704;6.536;2022-11-04T16:35:16;11.88;;;3.65;;
58338;SDS011;48278;52.704;6.536;2022-11-04T16:37:44;13.43;;;3.88;;
58338;SDS011;48278;52.704;6.536;2022-11-04T16:40:10;12.60;;;4.17;;
58338;SDS011;48278;52.704;6.536;2022-11-04T16:42:36;16.37;;;4.23;;
58338;SDS011;48278;52.704;6.536;2022-11-04T16:45:03;13.90;;;4.50;;
58338;SDS011;48278;52.704;6.536;2022-11-04T16:47:30;11.90;;;3.90;;
58338;SDS011;48278;52.704;6.536;2022-11-04T16:49:59;10.85;;;3.50;;
58338;SDS011;48278;52.704;6.536;2022-11-04T16:52:25;13.18;;;3.80;;
58338;SDS011;48278;52.704;6.536;2022-11-04T16:54:51;10.13;;;3.67;;
58338;SDS011;48278;52.704;6.536;2022-11-04T16:57:21;13.55;;;3.67;;
58338;SDS011;48278;52.704;6.536;2022-11-04T16:59:49;13.93;;;3.90;;
58338;SDS011;48278;52.704;6.536;2022-11-04T17:02:19;11.30;;;3.78;;
58338;SDS011;48278;52.704;6.536;2022-11-04T17:07:18;9.17;;;2.90;;
58338;SDS011;48278;52.704;6.536;2022-11-04T17:09:44;12.13;;;2.88;;
58338;SDS011;48278;52.704;6.536;2022-11-04T17:12:10;12.60;;;2.70;;
58338;SDS011;48278;52.704;6.536;2022-11-04T17:14:36;9.70;;;2.50;;
58338;SDS011;48278;52.704;6.536;2022-11-04T17:17:02;9.20;;;1.80;;
58338;SDS011;48278;52.704;6.536;2022-11-04T17:19:28;11.00;;;2.47;;
58338;SDS011;48278;52.704;6.536;2022-11-04T17:21:55;9.93;;;2.10;;
58338;SDS011;48278;52.704;6.536;2022-11-04T17:24:22;9.25;;;2.00;;
58338;SDS011;48278;52.704;6.536;2022-11-04T17:26:49;10.30;;;2.10;;
58338;SDS011;48278;52.704;6.536;2022-11-04T17:29:14;11.02;;;1.75;;
58338;SDS011;48278;52.704;6.536;2022-11-04T17:31:40;9.25;;;2.35;;
58338;SDS011;48278;52.704;6.536;2022-11-04T17:34:07;8.88;;;1.83;;
58338;SDS011;48278;52.704;6.536;2022-11-04T17:36:32;14.30;;;2.95;;
58338;SDS011;48278;52.704;6.536;2022-11-04T17:38:59;11.77;;;2.42;;
58338;SDS011;48278;52.704;6.536;2022-11-04T17:41:24;8.82;;;1.70;;
58338;SDS011;48278;52.704;6.536;2022-11-04T17:44:09;7.95;;;1.90;;
58338;SDS011;48278;52.704;6.536;2022-11-04T17:46:35;12.43;;;2.17;;
58338;SDS011;48278;52.704;6.536;2022-11-04T17:51:34;14.80;;;3.75;;
58338;SDS011;48278;52.704;6.536;2022-11-04T17:54:00;12.30;;;3.08;;
58338;SDS011;48278;52.704;6.536;2022-11-04T17:56:26;10.45;;;2.90;;
58338;SDS011;48278;52.704;6.536;2022-11-04T17:58:52;15.90;;;3.90;;
58338;SDS011;48278;52.704;6.536;2022-11-04T18:01:18;16.80;;;4.65;;
58338;SDS011;48278;52.704;6.536;2022-11-04T18:03:46;22.17;;;5.80;;
58338;SDS011;48278;52.704;6.536;2022-11-04T18:06:12;15.88;;;4.65;;
58338;SDS011;48278;52.704;6.536;2022-11-04T18:08:37;20.35;;;7.18;;
58338;SDS011;48278;52.704;6.536;2022-11-04T18:11:05;17.63;;;4.80;;
58338;SDS011;48278;52.704;6.536;2022-11-04T18:13:33;8.82;;;3.00;;
58338;SDS011;48278;52.704;6.536;2022-11-04T18:16:07;9.35;;;2.63;;